sensor_id;sensor_type;location;lat;lon;timestamp;pressure;altitude;pressure_sealevel;temperature;humidity
5996;BME280;3026;53.612;7.278;2023-11-18T00:02:13;102301.53;;;3.02;100.00
5996;BME280;3026;53.612;7.278;2023-11-18T00:04:43;102301.53;;;3.02;100.00
5996;BME280;3026;53.612;7.278;2023-11-18T00:07:12;102305.31;;;2.98;100.00
5996;BME280;3026;53.612;7.278;2023-11-18T00:09:39;102306.19;;;2.98;100.00
5996;BME280;3026;53.612;7.278;2023-11-18T00:12:08;102308.97;;;2.97;100.00
5996;BME280;3026;53.612;7.278;2023-11-18T00:14:36;102304.56;;;2.96;100.00
5996;BME280;3026;53.612;7.278;2023-11-18T00:17:03;102301.84;;;2.96;100.00
5996;BME280;3026;53.612;7.278;2023-11-18T00:19:30;102304.66;;;2.94;100.00
5996;BME280;3026;53.612;7.278;2023-11-18T00:22:03;102300.31;;;2.91;100.00
5996;BME280;3026;53.612;7.278;2023-11-18T00:24:31;102309.16;;;2.93;100.00
5996;BME280;3026;53.612;7.278;2023-11-18T00:27:00;102308.22;;;2.95;100.00
5996;BME280;3026;53.612;7.278;2023-11-18T00:29:32;102303.59;;;2.97;100.00
5996;BME280;3026;53.612;7.278;2023-11-18T00:32:02;102301.66;;;2.99;100.00
5996;BME280;3026;53.612;7.278;2023-11-18T00:34:30;102305.94;;;3.03;100.00
5996;BME280;3026;53.612;7.278;2023-11-18T00:36:57;102306.53;;;3.08;100.00
5996;BME280;3026;53.612;7.278;2023-11-18T00:39:26;102312.69;;;3.10;100.00
5996;BME280;3026;53.612;7.278;2023-11-18T00:41:53;102308.91;;;3.14;100.00
5996;BME280;3026;53.612;7.278;2023-11-18T00:44:21;102304.28;;;3.16;100.00
5996;BME280;3026;53.612;7.278;2023-11-18T00:46:48;102300.53;;;3.18;100.00
5996;BME280;3026;53.612;7.278;2023-11-18T00:49:15;102297.75;;;3.20;100.00
5996;BME280;3026;53.612;7.278;2023-11-18T00:51:44;102292.16;;;3.23;100.00
5996;BME280;3026;53.612;7.278;2023-11-18T00:54:11;102296.44;;;3.27;100.00
5996;BME280;3026;53.612;7.278;2023-11-18T00:56:40;102297.97;;;3.31;100.00
5996;BME280;3026;53.612;7.278;2023-11-18T00:59:08;102295.97;;;3.35;100.00
5996;BME280;3026;53.612;7.278;2023-11-18T01:01:35;102301.09;;;3.39;100.00
5996;BME280;3026;53.612;7.278;2023-11-18T01:04:04;102296.38;;;3.43;100.00
5996;BME280;3026;53.612;7.278;2023-11-18T01:06:32;102307.84;;;3.46;100.00
5996;BME280;3026;53.612;7.278;2023-11-18T01:09:01;102306.13;;;3.45;100.00
5996;BME280;3026;53.612;7.278;2023-11-18T01:11:29;102310.97;;;3.55;100.00
5996;BME280;3026;53.612;7.278;2023-11-18T01:13:59;102310.00;;;3.56;100.00
5996;BME280;3026;53.612;7.278;2023-11-18T01:16:48;102312.69;;;3.56;100.00
5996;BME280;3026;53.612;7.278;2023-11-18T01:19:15;102319.47;;;3.63;100.00
5996;BME280;3026;53.612;7.278;2023-11-18T01:21:44;102318.41;;;3.65;100.00
5996;BME280;3026;53.612;7.278;2023-11-18T01:24:12;102317.19;;;3.71;100.00
5996;BME280;3026;53.612;7.278;2023-11-18T01:26:40;102311.63;;;3.74;100.00
5996;BME280;3026;53.612;7.278;2023-11-18T01:29:09;102307.94;;;3.75;100.00
5996;BME280;3026;53.612;7.278;2023-11-18T01:31:40;102311.63;;;3.74;100.00
5996;BME280;3026;53.612;7.278;2023-11-18T01:34:08;102299.09;;;3.73;100.00
5996;BME280;3026;53.612;7.278;2023-11-18T01:36:39;102306.03;;;3.77;100.00
5996;BME280;3026;53.612;7.278;2023-11-18T01:39:06;102297.81;;;3.78;100.00
5996;BME280;3026;53.612;7.278;2023-11-18T01:41:33;102302.34;;;3.78;100.00
5996;BME280;3026;53.612;7.278;2023-11-18T01:44:04;102296.97;;;3.78;100.00
5996;BME280;3026;53.612;7.278;2023-11-18T01:46:37;102308.63;;;3.78;100.00
5996;BME280;3026;53.612;7.278;2023-11-18T01:49:06;102299.75;;;3.76;100.00
5996;BME280;3026;53.612;7.278;2023-11-18T01:51:38;102310.44;;;3.78;100.00
5996;BME280;3026;53.612;7.278;2023-11-18T01:54:07;102313.16;;;3.78;100.00
5996;BME280;3026;53.612;7.278;2023-11-18T01:56:39;102305.16;;;3.76;100.00
5996;BME280;3026;53.612;7.278;2023-11-18T01:59:08;102305.16;;;3.76;100.00
5996;BME280;3026;53.612;7.278;2023-11-18T02:01:39;102304.28;;;3.76;100.00
5996;BME280;3026;53.612;7.278;2023-11-18T02:04:09;102297.16;;;3.75;100.00
5996;BME280;3026;53.612;7.278;2023-11-18T02:06:36;102299.94;;;3.73;100.00
5996;BME280;3026;53.612;7.278;2023-11-18T02:09:03;102294.66;;;3.72;100.00
5996;BME280;3026;53.612;7.278;2023-11-18T02:11:34;102292.81;;;3.72;100.00
5996;BME280;3026;53.612;7.278;2023-11-18T02:14:08;102296.47;;;3.71;100.00
5996;BME280;3026;53.612;7.278;2023-11-18T02:16:42;102290.22;;;3.71;100.00
5996;BME280;3026;53.612;7.278;2023-11-18T02:19:19;102287.59;;;3.69;100.00
5996;BME280;3026;53.612;7.278;2023-11-18T02:21:47;102285.00;;;3.68;100.00
5996;BME280;3026;53.612;7.278;2023-11-18T02:24:27;102286.81;;;3.67;100.00
5996;BME280;3026;53.612;7.278;2023-11-18T02:26:58;102279.69;;;3.66;100.00
5996;BME280;3026;53.612;7.278;2023-11-18T02:29:28;102276.22;;;3.64;100.00
5996;BME280;3026;53.612;7.278;2023-11-18T02:32:04;102277.00;;;3.66;100.00
5996;BME280;3026;53.612;7.278;2023-11-18T02:34:40;102282.47;;;3.65;100.00
5996;BME280;3026;53.612;7.278;2023-11-18T02:37:08;102279.97;;;3.62;100.00
5996;BME280;3026;53.612;7.278;2023-11-18T02:39:40;102279.13;;;3.61;100.00
5996;BME280;3026;53.612;7.278;2023-11-18T02:42:12;102292.50;;;3.63;100.00
5996;BME280;3026;53.612;7.278;2023-11-18T02:44:39;102290.78;;;3.62;100.00
5996;BME280;3026;53.612;7.278;2023-11-18T02:47:09;102287.09;;;3.63;100.00
5996;BME280;3026;53.612;7.278;2023-11-18T02:49:37;102297.81;;;3.64;100.00
5996;BME280;3026;53.612;7.278;2023-11-18T02:52:06;102288.84;;;3.64;100.00
5996;BME280;3026;53.612;7.278;2023-11-18T02:54:35;102275.34;;;3.64;100.00
5996;BME280;3026;53.612;7.278;2023-11-18T02:57:03;102277.84;;;3.67;100.00
5996;BME280;3026;53.612;7.278;2023-11-18T02:59:32;102281.53;;;3.66;100.00
5996;BME280;3026;53.612;7.278;2023-11-18T03:01:59;102279.13;;;3.61;100.00
5996;BME280;3026;53.612;7.278;2023-11-18T03:04:26;102267.47;;;3.61;100.00
5996;BME280;3026;53.612;7.278;2023-11-18T03:06:55;102273.81;;;3.60;100.00
5996;BME280;3026;53.612;7.278;2023-11-18T03:09:22;102278.25;;;3.61;100.00
5996;BME280;3026;53.612;7.278;2023-11-18T03:11:53;102272.94;;;3.59;100.00
5996;BME280;3026;53.612;7.278;2023-11-18T03:14:20;102278.25;;;3.61;100.00
5996;BME280;3026;53.612;7.278;2023-11-18T03:16:53;102276.50;;;3.60;100.00
5996;BME280;3026;53.612;7.278;2023-11-18T03:19:21;102278.25;;;3.61;100.00
5996;BME280;3026;53.612;7.278;2023-11-18T03:21:50;102271.13;;;3.60;100.00
5996;BME280;3026;53.612;7.278;2023-11-18T03:24:23;102273.97;;;3.57;100.00
5996;BME280;3026;53.612;7.278;2023-11-18T03:26:50;102266.75;;;3.57;100.00
5996;BME280;3026;53.612;7.278;2023-11-18T03:29:17;102264.94;;;3.58;100.00
5996;BME280;3026;53.612;7.278;2023-11-18T03:31:46;102271.28;;;3.57;100.00
5996;BME280;3026;53.612;7.278;2023-11-18T03:34:15;102269.53;;;3.56;100.00
5996;BME280;3026;53.612;7.278;2023-11-18T03:36:45;102268.59;;;3.57;100.00
5996;BME280;3026;53.612;7.278;2023-11-18T03:39:12;102268.59;;;3.57;100.00
5996;BME280;3026;53.612;7.278;2023-11-18T03:41:40;102266.66;;;3.59;100.00
5996;BME280;3026;53.612;7.278;2023-11-18T03:44:12;102259.47;;;3.59;100.00
5996;BME280;3026;53.612;7.278;2023-11-18T03:46:39;102256.66;;;3.61;100.00
5996;BME280;3026;53.612;7.278;2023-11-18T03:49:07;102244.16;;;3.60;100.00
5996;BME280;3026;53.612;7.278;2023-11-18T03:51:36;102246.84;;;3.60;100.00
5996;BME280;3026;53.612;7.278;2023-11-18T03:54:04;102252.13;;;3.61;100.00
5996;BME280;3026;53.612;7.278;2023-11-18T03:56:34;102237.78;;;3.61;100.00
5996;BME280;3026;53.612;7.278;2023-11-18T03:59:01;102239.41;;;3.63;100.00
5996;BME280;3026;53.612;7.278;2023-11-18T04:01:31;102224.97;;;3.64;100.00
5996;BME280;3026;53.612;7.278;2023-11-18T04:03:59;102225.84;;;3.65;100.00
5996;BME280;3026;53.612;7.278;2023-11-18T04:06:29;102233.94;;;3.65;100.00
5996;BME280;3026;53.612;7.278;2023-11-18T04:08:57;102225.84;;;3.65;100.00
5996;BME280;3026;53.612;7.278;2023-11-18T04:11:25;102229.31;;;3.67;100.00
5996;BME280;3026;53.612;7.278;2023-11-18T04:13:52;102224.69;;;3.69;100.00
5996;BME280;3026;53.612;7.278;2023-11-18T04:16:19;102218.31;;;3.70;100.00
5996;BME280;3026;53.612;7.278;2023-11-18T04:18:46;102215.63;;;3.70;100.00
5996;BME280;3026;53.612;7.278;2023-11-18T04:21:14;102217.28;;;3.72;100.00
5996;BME280;3026;53.612;7.278;2023-11-18T04:23:42;102205.53;;;3.73;100.00
5996;BME280;3026;53.612;7.278;2023-11-18T04:26:14;102207.34;;;3.73;100.00
5996;BME280;3026;53.612;7.278;2023-11-18T04:28:41;102205.63;;;3.72;100.00
5996;BME280;3026;53.612;7.278;2023-11-18T04:31:09;102199.25;;;3.73;100.00
5996;BME280;3026;53.612;7.278;2023-11-18T04:33:37;102192.91;;;3.74;100.00
5996;BME280;3026;53.612;7.278;2023-11-18T04:36:06;102187.31;;;3.77;100.00
5996;BME280;3026;53.612;7.278;2023-11-18T04:38:35;102181.91;;;3.77;100.00
5996;BME280;3026;53.612;7.278;2023-11-18T04:41:03;102185.38;;;3.79;100.00
5996;BME280;3026;53.612;7.278;2023-11-18T04:43:31;102177.28;;;3.79;100.00
5996;BME280;3026;53.612;7.278;2023-11-18T04:46:00;102172.75;;;3.79;100.00
5996;BME280;3026;53.612;7.278;2023-11-18T04:48:27;102173.50;;;3.81;100.00
5996;BME280;3026;53.612;7.278;2023-11-18T04:50:54;102186.94;;;3.83;100.00
5996;BME280;3026;53.612;7.278;2023-11-18T04:53:21;102184.25;;;3.83;100.00
5996;BME280;3026;53.612;7.278;2023-11-18T04:55:49;102186.72;;;3.86;100.00
5996;BME280;3026;53.612;7.278;2023-11-18T04:58:16;102171.31;;;3.88;100.00
5996;BME280;3026;53.612;7.278;2023-11-18T05:00:48;102170.34;;;3.89;100.00
5996;BME280;3026;53.612;7.278;2023-11-18T05:03:16;102182.00;;;3.90;100.00
5996;BME280;3026;53.612;7.278;2023-11-18T05:05:43;102173.81;;;3.91;100.00
5996;BME280;3026;53.612;7.278;2023-11-18T05:08:18;102176.59;;;3.90;100.00
5996;BME280;3026;53.612;7.278;2023-11-18T05:10:46;102178.34;;;3.91;100.00
5996;BME280;3026;53.612;7.278;2023-11-18T05:13:14;102173.69;;;3.93;100.00
5996;BME280;3026;53.612;7.278;2023-11-18T05:15:42;102168.25;;;3.94;100.00
5996;BME280;3026;53.612;7.278;2023-11-18T05:18:13;102164.56;;;3.95;100.00
5996;BME280;3026;53.612;7.278;2023-11-18T05:20:40;102162.84;;;3.94;100.00
5996;BME280;3026;53.612;7.278;2023-11-18T05:23:09;102163.00;;;3.91;100.00
5996;BME280;3026;53.612;7.278;2023-11-18T05:25:38;102165.72;;;3.91;100.00
5996;BME280;3026;53.612;7.278;2023-11-18T05:28:06;102172.06;;;3.90;100.00
5996;BME280;3026;53.612;7.278;2023-11-18T05:30:34;102172.06;;;3.90;100.00
5996;BME280;3026;53.612;7.278;2023-11-18T05:33:02;102176.59;;;3.90;100.00
5996;BME280;3026;53.612;7.278;2023-11-18T05:35:33;102163.88;;;3.92;100.00
5996;BME280;3026;53.612;7.278;2023-11-18T05:38:01;102179.19;;;3.91;100.00
5996;BME280;3026;53.612;7.278;2023-11-18T05:40:29;102171.09;;;3.91;100.00
5996;BME280;3026;53.612;7.278;2023-11-18T05:42:57;102165.59;;;3.93;100.00
5996;BME280;3026;53.612;7.278;2023-11-18T05:45:24;102176.34;;;3.94;100.00
5996;BME280;3026;53.612;7.278;2023-11-18T05:47:58;102177.19;;;3.95;100.00
5996;BME280;3026;53.612;7.278;2023-11-18T05:50:25;102179.03;;;3.94;100.00
5996;BME280;3026;53.612;7.278;2023-11-18T05:52:55;102187.13;;;3.94;100.00
5996;BME280;3026;53.612;7.278;2023-11-18T05:55:22;102171.88;;;3.93;100.00
5996;BME280;3026;53.612;7.278;2023-11-18T05:57:54;102158.31;;;3.95;100.00
5996;BME280;3026;53.612;7.278;2023-11-18T06:00:21;102150.09;;;3.96;100.00
5996;BME280;3026;53.612;7.278;2023-11-18T06:02:50;102151.84;;;3.97;100.00
5996;BME280;3026;53.612;7.278;2023-11-18T06:05:17;102153.56;;;3.98;100.00
5996;BME280;3026;53.612;7.278;2023-11-18T06:07:44;102166.09;;;3.99;100.00
5996;BME280;3026;53.612;7.278;2023-11-18T06:10:14;102169.56;;;4.01;100.00
5996;BME280;3026;53.612;7.278;2023-11-18T06:12:41;102160.50;;;4.02;100.00
5996;BME280;3026;53.612;7.278;2023-11-18T06:15:08;102157.69;;;4.04;100.00
5996;BME280;3026;53.612;7.278;2023-11-18T06:17:40;102155.84;;;4.04;100.00
5996;BME280;3026;53.612;7.278;2023-11-18T06:20:08;102160.31;;;4.05;100.00
5996;BME280;3026;53.612;7.278;2023-11-18T06:22:37;102154.72;;;4.08;100.00
5996;BME280;3026;53.612;7.278;2023-11-18T06:25:05;102154.63;;;4.10;100.00
5996;BME280;3026;53.612;7.278;2023-11-18T06:27:39;102143.81;;;4.10;100.00
5996;BME280;3026;53.612;7.278;2023-11-18T06:30:07;102131.19;;;4.10;100.00
5996;BME280;3026;53.612;7.278;2023-11-18T06:32:37;102128.38;;;4.12;100.00
5996;BME280;3026;53.612;7.278;2023-11-18T06:35:05;102118.44;;;4.13;100.00
5996;BME280;3026;53.612;7.278;2023-11-18T06:37:33;102121.16;;;4.13;100.00
5996;BME280;3026;53.612;7.278;2023-11-18T06:40:01;102125.59;;;4.14;100.00
5996;BME280;3026;53.612;7.278;2023-11-18T06:42:33;102131.94;;;4.13;100.00
5996;BME280;3026;53.612;7.278;2023-11-18T06:45:04;102137.44;;;4.11;100.00
5996;BME280;3026;53.612;7.278;2023-11-18T06:47:35;102140.06;;;4.13;100.00
5996;BME280;3026;53.612;7.278;2023-11-18T06:50:04;102136.38;;;4.14;100.00
5996;BME280;3026;53.612;7.278;2023-11-18T06:52:36;102138.09;;;4.15;100.00
5996;BME280;3026;53.612;7.278;2023-11-18T06:55:04;102134.44;;;4.16;100.00
5996;BME280;3026;53.612;7.278;2023-11-18T06:57:32;102128.97;;;4.17;100.00
5996;BME280;3026;53.612;7.278;2023-11-18T06:59:59;102128.88;;;4.19;100.00
5996;BME280;3026;53.612;7.278;2023-11-18T07:02:27;102125.19;;;4.20;100.00
5996;BME280;3026;53.612;7.278;2023-11-18T07:04:56;102145.06;;;4.19;100.00
5996;BME280;3026;53.612;7.278;2023-11-18T07:07:23;102142.38;;;4.19;100.00
5996;BME280;3026;53.612;7.278;2023-11-18T07:09:50;102137.72;;;4.21;100.00
5996;BME280;3026;53.612;7.278;2023-11-18T07:12:17;102137.72;;;4.21;100.00
5996;BME280;3026;53.612;7.278;2023-11-18T07:14:48;102134.81;;;4.24;100.00
5996;BME280;3026;53.612;7.278;2023-11-18T07:17:15;102125.00;;;4.23;100.00
5996;BME280;3026;53.612;7.278;2023-11-18T07:19:46;102126.72;;;4.24;100.00
5996;BME280;3026;53.612;7.278;2023-11-18T07:22:13;102122.19;;;4.24;100.00
5996;BME280;3026;53.612;7.278;2023-11-18T07:24:40;102130.38;;;4.23;100.00
5996;BME280;3026;53.612;7.278;2023-11-18T07:27:09;102120.44;;;4.23;100.00
5996;BME280;3026;53.612;7.278;2023-11-18T07:29:38;102133.84;;;4.25;100.00
5996;BME280;3026;53.612;7.278;2023-11-18T07:32:05;102125.53;;;4.28;100.00
5996;BME280;3026;53.612;7.278;2023-11-18T07:34:34;102121.91;;;4.29;100.00
5996;BME280;3026;53.612;7.278;2023-11-18T07:37:06;102117.53;;;4.26;100.00
5996;BME280;3026;53.612;7.278;2023-11-18T07:39:34;102113.09;;;4.25;100.00
5996;BME280;3026;53.612;7.278;2023-11-18T07:42:10;102121.31;;;4.24;100.00
5996;BME280;3026;53.612;7.278;2023-11-18T07:44:37;102120.56;;;4.22;100.00
5996;BME280;3026;53.612;7.278;2023-11-18T07:47:06;102123.25;;;4.22;100.00
5996;BME280;3026;53.612;7.278;2023-11-18T07:49:34;102119.59;;;4.23;100.00
5996;BME280;3026;53.612;7.278;2023-11-18T07:52:01;102124.88;;;4.24;100.00
5996;BME280;3026;53.612;7.278;2023-11-18T07:54:30;102123.03;;;4.25;100.00
5996;BME280;3026;53.612;7.278;2023-11-18T07:56:58;102119.38;;;4.26;100.00
5996;BME280;3026;53.612;7.278;2023-11-18T07:59:25;102123.81;;;4.27;100.00
5996;BME280;3026;53.612;7.278;2023-11-18T08:01:54;102126.34;;;4.30;100.00
5996;BME280;3026;53.612;7.278;2023-11-18T08:04:21;102124.38;;;4.32;100.00
5996;BME280;3026;53.612;7.278;2023-11-18T08:06:49;102128.06;;;4.31;100.00
5996;BME280;3026;53.612;7.278;2023-11-18T08:09:17;102138.66;;;4.34;100.00
5996;BME280;3026;53.612;7.278;2023-11-18T08:11:50;102144.06;;;4.34;100.00
5996;BME280;3026;53.612;7.278;2023-11-18T08:14:18;102142.22;;;4.34;100.00
5996;BME280;3026;53.612;7.278;2023-11-18T08:16:47;102136.72;;;4.36;100.00
5996;BME280;3026;53.612;7.278;2023-11-18T08:19:15;102131.31;;;4.36;100.00
5996;BME280;3026;53.612;7.278;2023-11-18T08:21:42;102127.47;;;4.40;100.00
5996;BME280;3026;53.612;7.278;2023-11-18T08:24:09;102102.19;;;4.41;100.00
5996;BME280;3026;53.612;7.278;2023-11-18T08:26:36;102113.53;;;4.46;100.00
5996;BME280;3026;53.612;7.278;2023-11-18T08:29:04;102092.69;;;4.48;100.00
5996;BME280;3026;53.612;7.278;2023-11-18T08:31:32;102081.66;;;4.51;100.00
5996;BME280;3026;53.612;7.278;2023-11-18T08:34:02;102078.88;;;4.53;100.00
5996;BME280;3026;53.612;7.278;2023-11-18T08:36:30;102075.22;;;4.54;100.00
5996;BME280;3026;53.612;7.278;2023-11-18T08:38:59;102078.78;;;4.54;100.00
5996;BME280;3026;53.612;7.278;2023-11-18T08:41:26;102065.06;;;4.57;100.00
5996;BME280;3026;53.612;7.278;2023-11-18T08:43:53;102076.94;;;4.55;100.00
5996;BME280;3026;53.612;7.278;2023-11-18T08:46:22;102070.56;;;4.56;100.00
5996;BME280;3026;53.612;7.278;2023-11-18T08:48:50;102074.13;;;4.56;100.00
5996;BME280;3026;53.612;7.278;2023-11-18T08:51:17;102079.53;;;4.56;100.00
5996;BME280;3026;53.612;7.278;2023-11-18T08:53:46;102073.91;;;4.59;100.00
5996;BME280;3026;53.612;7.278;2023-11-18T08:56:16;102061.16;;;4.61;100.00
5996;BME280;3026;53.612;7.278;2023-11-18T08:58:45;102064.66;;;4.63;100.00
5996;BME280;3026;53.612;7.278;2023-11-18T09:01:14;102057.31;;;4.65;100.00
5996;BME280;3026;53.612;7.278;2023-11-18T09:03:44;102053.63;;;4.66;100.00
5996;BME280;3026;53.612;7.278;2023-11-18T09:06:16;102041.84;;;4.67;100.00
5996;BME280;3026;53.612;7.278;2023-11-18T09:08:51;102034.59;;;4.68;100.00
5996;BME280;3026;53.612;7.278;2023-11-18T09:11:20;102044.56;;;4.67;100.00
5996;BME280;3026;53.612;7.278;2023-11-18T09:13:48;102043.47;;;4.70;100.00
5996;BME280;3026;53.612;7.278;2023-11-18T09:16:19;102044.34;;;4.71;100.00
5996;BME280;3026;53.612;7.278;2023-11-18T09:18:49;102046.06;;;4.72;100.00
5996;BME280;3026;53.612;7.278;2023-11-18T09:21:17;102045.88;;;4.75;100.00
5996;BME280;3026;53.612;7.278;2023-11-18T09:23:49;102038.72;;;4.74;100.00
5996;BME280;3026;53.612;7.278;2023-11-18T09:26:16;102040.47;;;4.75;100.00
5996;BME280;3026;53.612;7.278;2023-11-18T09:28:43;102040.47;;;4.75;100.00
5996;BME280;3026;53.612;7.278;2023-11-18T09:31:11;102043.06;;;4.76;100.00
5996;BME280;3026;53.612;7.278;2023-11-18T09:33:40;102041.13;;;4.78;100.00
5996;BME280;3026;53.612;7.278;2023-11-18T09:36:14;102030.94;;;4.82;100.00
5996;BME280;3026;53.612;7.278;2023-11-18T09:38:44;102043.47;;;4.83;100.00
5996;BME280;3026;53.612;7.278;2023-11-18T09:41:12;102045.22;;;4.84;100.00
5996;BME280;3026;53.612;7.278;2023-11-18T09:43:42;102038.84;;;4.85;100.00
5996;BME280;3026;53.612;7.278;2023-11-18T09:46:13;102027.03;;;4.86;100.00
5996;BME280;3026;53.612;7.278;2023-11-18T09:48:42;102027.03;;;4.86;100.00
5996;BME280;3026;53.612;7.278;2023-11-18T09:51:15;102019.84;;;4.86;100.00
5996;BME280;3026;53.612;7.278;2023-11-18T09:53:49;102018.00;;;4.87;100.00
5996;BME280;3026;53.612;7.278;2023-11-18T09:56:28;102002.72;;;4.86;100.00
5996;BME280;3026;53.612;7.278;2023-11-18T09:59:09;102018.88;;;4.87;100.00
5996;BME280;3026;53.612;7.278;2023-11-18T10:01:42;102014.31;;;4.88;100.00
5996;BME280;3026;53.612;7.278;2023-11-18T10:04:11;102006.09;;;4.89;100.00
5996;BME280;3026;53.612;7.278;2023-11-18T10:06:43;101994.19;;;4.92;100.00
5996;BME280;3026;53.612;7.278;2023-11-18T10:09:11;102001.97;;;4.96;100.00
5996;BME280;3026;53.612;7.278;2023-11-18T10:11:59;101990.09;;;4.99;100.00
5996;BME280;3026;53.612;7.278;2023-11-18T10:14:31;101991.84;;;5.00;100.00
5996;BME280;3026;53.612;7.278;2023-11-18T10:16:58;101977.34;;;5.01;100.00
5996;BME280;3026;53.612;7.278;2023-11-18T10:19:49;101971.94;;;5.01;100.00
5996;BME280;3026;53.612;7.278;2023-11-18T10:22:22;101966.53;;;5.01;100.00
5996;BME280;3026;53.612;7.278;2023-11-18T10:24:51;101975.38;;;5.03;100.00
5996;BME280;3026;53.612;7.278;2023-11-18T10:27:22;101973.44;;;5.05;100.00
5996;BME280;3026;53.612;7.278;2023-11-18T10:29:55;101967.78;;;5.08;100.00
5996;BME280;3026;53.612;7.278;2023-11-18T10:32:22;101952.56;;;5.07;100.00
5996;BME280;3026;53.612;7.278;2023-11-18T10:34:54;101939.69;;;5.11;100.00
5996;BME280;3026;53.612;7.278;2023-11-18T10:37:25;101944.00;;;5.13;100.00
5996;BME280;3026;53.612;7.278;2023-11-18T10:39:56;101927.56;;;5.16;100.00
5996;BME280;3026;53.612;7.278;2023-11-18T10:42:26;101913.06;;;5.17;100.00
5996;BME280;3026;53.612;7.278;2023-11-18T10:44:56;101911.97;;;5.20;100.00
5996;BME280;3026;53.612;7.278;2023-11-18T10:47:25;101911.66;;;5.24;100.00
5996;BME280;3026;53.612;7.278;2023-11-18T10:49:55;101910.69;;;5.25;100.00
5996;BME280;3026;53.612;7.278;2023-11-18T10:52:25;101907.00;;;5.26;100.00
5996;BME280;3026;53.612;7.278;2023-11-18T10:54:56;101893.97;;;5.32;100.00
5996;BME280;3026;53.612;7.278;2023-11-18T10:57:24;101893.03;;;5.33;100.00
5996;BME280;3026;53.612;7.278;2023-11-18T11:00:01;101893.53;;;5.38;100.00
5996;BME280;3026;53.612;7.278;2023-11-18T11:02:30;101914.19;;;5.39;100.00
5996;BME280;3026;53.612;7.278;2023-11-18T11:05:04;101911.38;;;5.40;100.00
5996;BME280;3026;53.612;7.278;2023-11-18T11:07:35;101912.00;;;5.44;100.00
5996;BME280;3026;53.612;7.278;2023-11-18T11:10:07;101896.56;;;5.46;100.00
5996;BME280;3026;53.612;7.278;2023-11-18T11:12:43;101894.59;;;5.48;100.00
5996;BME280;3026;53.612;7.278;2023-11-18T11:15:22;101888.09;;;5.50;100.00
5996;BME280;3026;53.612;7.278;2023-11-18T11:17:52;101890.66;;;5.52;100.00
5996;BME280;3026;53.612;7.278;2023-11-18T11:20:22;101878.13;;;5.51;100.00
5996;BME280;3026;53.612;7.278;2023-11-18T11:23:05;101873.47;;;5.53;100.00
5996;BME280;3026;53.612;7.278;2023-11-18T11:25:42;101870.63;;;5.54;100.00
5996;BME280;3026;53.612;7.278;2023-11-18T11:28:13;101863.63;;;5.52;100.00
5996;BME280;3026;53.612;7.278;2023-11-18T11:30:44;101858.22;;;5.52;100.00
5996;BME280;3026;53.612;7.278;2023-11-18T11:33:21;101854.53;;;5.53;100.00
5996;BME280;3026;53.612;7.278;2023-11-18T11:35:56;101856.25;;;5.54;100.00
5996;BME280;3026;53.612;7.278;2023-11-18T11:38:26;101855.50;;;5.52;100.00
5996;BME280;3026;53.612;7.278;2023-11-18T11:40:54;101848.25;;;5.52;100.00
5996;BME280;3026;53.612;7.278;2023-11-18T11:43:23;101848.38;;;5.51;100.00
5996;BME280;3026;53.612;7.278;2023-11-18T11:45:54;101849.97;;;5.53;100.00
5996;BME280;3026;53.612;7.278;2023-11-18T11:48:23;101833.75;;;5.53;100.00
5996;BME280;3026;53.612;7.278;2023-11-18T11:51:00;101838.16;;;5.54;100.00
5996;BME280;3026;53.612;7.278;2023-11-18T11:53:34;101834.59;;;5.54;100.00
5996;BME280;3026;53.612;7.278;2023-11-18T11:56:05;101830.06;;;5.54;100.00
5996;BME280;3026;53.612;7.278;2023-11-18T11:58:35;101832.66;;;5.56;100.00
5996;BME280;3026;53.612;7.278;2023-11-18T12:01:15;101836.31;;;5.55;100.00
5996;BME280;3026;53.612;7.278;2023-11-18T12:03:46;101832.88;;;5.53;100.00
5996;BME280;3026;53.612;7.278;2023-11-18T12:06:18;101847.16;;;5.55;100.00
5996;BME280;3026;53.612;7.278;2023-11-18T12:08:48;101822.91;;;5.53;100.00
5996;BME280;3026;53.612;7.278;2023-11-18T12:11:17;101826.38;;;5.55;100.00
5996;BME280;3026;53.612;7.278;2023-11-18T12:14:01;101817.38;;;5.55;100.00
5996;BME280;3026;53.612;7.278;2023-11-18T12:16:57;101820.09;;;5.55;100.00
5996;BME280;3026;53.612;7.278;2023-11-18T12:19:31;101812.97;;;5.54;100.00
5996;BME280;3026;53.612;7.278;2023-11-18T12:22:02;101800.41;;;5.53;100.00
5996;BME280;3026;53.612;7.278;2023-11-18T12:24:39;101814.91;;;5.52;100.00
5996;BME280;3026;53.612;7.278;2023-11-18T12:27:09;101807.78;;;5.51;100.00
5996;BME280;3026;53.612;7.278;2023-11-18T12:29:41;101809.50;;;5.52;100.00
5996;BME280;3026;53.612;7.278;2023-11-18T12:32:09;101794.25;;;5.51;100.00
5996;BME280;3026;53.612;7.278;2023-11-18T12:34:52;101796.97;;;5.51;100.00
5996;BME280;3026;53.612;7.278;2023-11-18T12:37:50;101796.22;;;5.49;100.00
5996;BME280;3026;53.612;7.278;2023-11-18T12:40:55;101794.50;;;5.48;100.00
5996;BME280;3026;53.612;7.278;2023-11-18T12:43:47;101784.44;;;5.50;100.00
5996;BME280;3026;53.612;7.278;2023-11-18T12:46:50;101771.88;;;5.49;100.00
5996;BME280;3026;53.612;7.278;2023-11-18T12:49:19;101764.50;;;5.51;100.00
5996;BME280;3026;53.612;7.278;2023-11-18T12:51:50;101749.88;;;5.53;100.00
5996;BME280;3026;53.612;7.278;2023-11-18T12:54:18;101742.41;;;5.57;100.00
5996;BME280;3026;53.612;7.278;2023-11-18T12:56:48;101731.34;;;5.60;100.00
5996;BME280;3026;53.612;7.278;2023-11-18T12:59:19;101719.66;;;5.60;100.00
5996;BME280;3026;53.612;7.278;2023-11-18T13:01:49;101716.81;;;5.61;100.00
5996;BME280;3026;53.612;7.278;2023-11-18T13:04:20;101722.00;;;5.64;100.00
5996;BME280;3026;53.612;7.278;2023-11-18T13:06:49;101716.34;;;5.67;100.00
5996;BME280;3026;53.612;7.278;2023-11-18T13:09:18;101706.41;;;5.68;100.00
5996;BME280;3026;53.612;7.278;2023-11-18T13:11:55;101701.00;;;5.68;100.00
5996;BME280;3026;53.612;7.278;2023-11-18T13:14:24;101721.75;;;5.67;100.00
5996;BME280;3026;53.612;7.278;2023-11-18T13:16:56;101714.41;;;5.69;100.00
5996;BME280;3026;53.612;7.278;2023-11-18T13:19:24;101701.00;;;5.68;100.00
5996;BME280;3026;53.612;7.278;2023-11-18T13:21:51;101689.28;;;5.67;100.00
5996;BME280;3026;53.612;7.278;2023-11-18T13:24:22;101684.63;;;5.69;100.00
5996;BME280;3026;53.612;7.278;2023-11-18T13:26:50;101674.78;;;5.68;100.00